Time;durP1;ratioP1;P1;durP2;ratioP2;P2;SDS_P1;SDS_P2;PMS_P1;PMS_P2;Temp;Humidity;BMP_temperature;BMP_pressure;BME280_temperature;BME280_humidity;BME280_pressure;Samples;Min_cycle;Max_cycle;Signal;HPM_P1;HPM_P2
2022/05/07 00:00:25;;;;;;;9.95;3.10;;;;;;;4.67;62.97;101202.30;1726345;83;21724;-83
2022/05/07 00:03:31;;;;;;;12.43;3.37;;;;;;;4.65;62.57;101205.59;1725640;83;21183;-83
2022/05/07 00:06:37;;;;;;;7.55;3.42;;;;;;;4.64;62.29;101201.16;1726585;83;21151;-83
2022/05/07 00:09:44;;;;;;;8.75;3.52;;;;;;;4.63;62.01;101197.22;1726443;83;21256;-83
2022/05/07 00:12:50;;;;;;;15.43;3.83;;;;;;;4.63;62.04;101199.44;1725367;83;21183;-83
2022/05/07 00:19:20;;;;;;;7.72;3.67;;;;;;;4.62;61.81;101208.55;1726183;83;22015;-79
2022/05/07 00:22:18;;;;;;;8.10;3.37;;;;;;;4.61;61.40;101205.45;1726459;83;21155;-79
2022/05/07 00:25:24;;;;;;;10.28;3.95;;;;;;;4.64;61.14;101201.66;1701265;83;21210;-79
2022/05/07 00:28:30;;;;;;;12.85;4.00;;;;;;;4.66;60.71;101203.28;1694131;84;21798;-79
2022/05/07 00:31:35;;;;;;;6.25;3.20;;;;;;;4.73;60.44;101200.95;1726542;83;21953;-79
2022/05/07 00:34:41;;;;;;;9.28;3.37;;;;;;;4.79;60.11;101193.70;1694268;84;21225;-78
2022/05/07 00:37:46;;;;;;;6.20;3.55;;;;;;;4.86;59.88;101200.39;1726417;83;21716;-78
2022/05/07 00:40:52;;;;;;;17.32;3.15;;;;;;;4.91;59.76;101208.17;1694182;84;21169;-79
2022/05/07 00:43:57;;;;;;;6.42;3.15;;;;;;;4.91;59.84;101204.97;1666239;86;21863;-79
2022/05/07 00:47:02;;;;;;;15.95;3.27;;;;;;;4.91;60.02;101213.59;1693939;83;21245;-79
2022/05/07 00:53:34;;;;;;;8.68;3.65;;;;;;;4.86;60.79;101209.88;1658521;85;21781;-78
2022/05/07 00:56:40;;;;;;;10.32;3.45;;;;;;;4.85;61.03;101207.67;1731403;83;21241;-78
2022/05/07 00:59:45;;;;;;;9.40;3.17;;;;;;;4.86;61.11;101210.75;1683666;85;21750;-78
2022/05/07 01:02:52;;;;;;;18.42;3.90;;;;;;;4.88;61.19;101212.83;1712798;84;21224;-78
2022/05/07 01:05:57;;;;;;;12.47;3.30;;;;;;;4.92;61.23;101215.32;1729862;83;21290;-78
2022/05/07 01:09:02;;;;;;;6.85;3.60;;;;;;;4.92;61.16;101213.96;1692236;83;21743;-78
2022/05/07 01:12:09;;;;;;;9.18;3.30;;;;;;;4.88;61.21;101212.83;1747134;81;21738;-78
2022/05/07 01:15:14;;;;;;;8.08;3.80;;;;;;;4.83;61.39;101210.97;1746876;82;21184;-78
2022/05/07 01:18:20;;;;;;;6.28;3.67;;;;;;;4.80;61.69;101213.08;1746471;81;21220;-78
2022/05/07 01:21:27;;;;;;;7.15;3.10;;;;;;;4.76;61.73;101209.73;1745850;82;21224;-78
2022/05/07 01:24:32;;;;;;;13.62;3.50;;;;;;;4.74;61.79;101214.38;1740711;82;21182;-78
2022/05/07 01:27:38;;;;;;;6.25;3.20;;;;;;;4.72;61.73;101219.06;1745898;82;21268;-78
2022/05/07 01:30:44;;;;;;;9.95;4.22;;;;;;;4.73;61.50;101212.66;1684897;85;21170;-78
2022/05/07 01:33:50;;;;;;;13.55;3.55;;;;;;;4.74;61.34;101214.88;1729648;83;21237;-78
2022/05/07 01:36:57;;;;;;;7.75;3.45;;;;;;;4.75;61.31;101220.20;1656252;86;22199;-78
2022/05/07 01:40:03;;;;;;;20.68;3.65;;;;;;;4.75;61.33;101226.98;1704045;83;21224;-78
2022/05/07 01:43:09;;;;;;;14.05;3.72;;;;;;;4.73;61.39;101228.92;1687251;85;21233;-78
2022/05/07 01:49:39;;;;;;;7.50;3.70;;;;;;;4.69;61.53;101226.56;1672952;85;21176;-78
2022/05/07 01:52:43;;;;;;;10.53;4.35;;;;;;;4.68;61.56;101231.12;1660145;86;21200;-78
2022/05/07 01:55:50;;;;;;;9.03;3.33;;;;;;;4.66;61.54;101226.31;1693962;84;21177;-79
2022/05/07 01:58:57;;;;;;;14.35;3.62;;;;;;;4.64;61.80;101224.69;1684824;85;21213;-83
2022/05/07 02:01:56;;;;;;;10.68;4.10;;;;;;;4.59;62.11;101231.31;1691553;85;22032;-79
2022/05/07 02:05:02;;;;;;;14.78;3.95;;;;;;;4.55;62.46;101238.44;1691525;85;21163;-78
2022/05/07 02:08:09;;;;;;;10.90;4.47;;;;;;;4.51;62.69;101243.21;1690816;85;21226;-79
2022/05/07 02:11:13;;;;;;;5.92;3.90;;;;;;;4.47;63.07;101243.09;1691721;85;21187;-78
2022/05/07 02:14:19;;;;;;;19.60;3.70;;;;;;;4.46;63.21;101239.12;1691648;85;21800;-79
2022/05/07 02:17:25;;;;;;;11.38;3.80;;;;;;;4.43;63.36;101239.37;1690978;84;21257;-79
2022/05/07 02:20:30;;;;;;;9.93;4.65;;;;;;;4.39;63.53;101242.79;1690251;85;21705;-79
2022/05/07 02:23:36;;;;;;;10.40;4.58;;;;;;;4.34;63.82;101241.78;1671934;85;21186;-78
2022/05/07 02:26:43;;;;;;;8.03;4.20;;;;;;;4.31;64.13;101245.19;1691223;85;21219;-78
2022/05/07 02:29:49;;;;;;;10.82;3.95;;;;;;;4.33;64.43;101245.47;1691468;85;21190;-79
2022/05/07 02:32:56;;;;;;;10.63;4.20;;;;;;;4.51;64.52;101247.27;1691050;85;21259;-78
2022/05/07 02:36:02;;;;;;;9.58;3.47;;;;;;;4.80;64.01;101247.82;1691123;85;21163;-79
2022/05/07 02:39:09;;;;;;;7.17;4.25;;;;;;;5.15;63.37;101247.45;1685990;85;21172;-78
2022/05/07 02:45:25;;;;;;;13.10;4.10;;;;;;;5.79;62.32;101248.68;1707280;82;21758;-78
2022/05/07 02:48:35;;;;;;;11.38;4.47;;;;;;;6.11;61.91;101258.81;1667070;84;21204;-78
2022/05/07 02:51:39;;;;;;;17.52;4.33;;;;;;;6.37;61.31;101253.48;1690154;84;21153;-78
2022/05/07 02:54:45;;;;;;;14.63;4.15;;;;;;;6.61;60.75;101268.75;1746472;82;21216;-78
2022/05/07 02:57:52;;;;;;;9.40;3.62;;;;;;;6.85;60.32;101267.19;1752485;82;21829;-78
2022/05/07 03:00:59;;;;;;;19.90;4.50;;;;;;;7.02;59.74;101275.30;1745451;82;21177;-78
2022/05/07 03:03:58;;;;;;;;;;;;;;;7.16;59.19;101274.98;1727899;82;21735;-78
2022/05/07 03:07:02;;;;;;;11.73;4.30;;;;;;;7.38;58.68;101281.66;1745143;80;20645;-78
2022/05/07 03:10:08;;;;;;;9.90;4.53;;;;;;;7.66;57.86;101283.34;1745717;82;21169;-78
2022/05/07 03:13:14;;;;;;;10.10;4.00;;;;;;;8.01;56.94;101291.16;1745828;80;21208;-78
2022/05/07 03:16:21;;;;;;;11.83;4.20;;;;;;;8.20;56.04;101293.11;1745588;82;21189;-78
2022/05/07 03:19:27;;;;;;;11.35;4.00;;;;;;;8.18;55.53;101293.73;1726826;82;21214;-78
2022/05/07 03:22:32;;;;;;;8.68;4.45;;;;;;;8.12;55.68;101287.47;1731215;82;21200;-78
2022/05/07 03:25:37;;;;;;;9.85;4.55;;;;;;;8.18;55.90;101296.45;1718410;82;21173;-78
2022/05/07 03:28:43;;;;;;;8.08;3.95;;;;;;;8.28;55.99;101300.11;1714772;83;21189;-78
2022/05/07 03:31:49;;;;;;;9.98;4.40;;;;;;;8.40;56.46;101305.84;1716108;83;21165;-78
2022/05/07 03:34:57;;;;;;;10.45;3.75;;;;;;;8.61;56.48;101296.23;1716123;83;21762;-77
2022/05/07 03:38:01;;;;;;;9.38;4.37;;;;;;;8.83;55.92;101294.25;1715436;83;21189;-78
2022/05/07 03:41:10;;;;;;;15.83;6.05;;;;;;;8.97;55.43;101297.92;1715960;83;21225;-78
2022/05/07 03:44:16;;;;;;;14.73;3.80;;;;;;;9.11;55.33;101299.38;1715929;83;21201;-78
2022/05/07 03:47:21;;;;;;;7.55;3.92;;;;;;;9.19;54.86;101299.53;1714768;83;21205;-78
2022/05/07 03:50:28;;;;;;;8.35;4.50;;;;;;;9.21;54.67;101302.97;1710038;82;21727;-78
2022/05/07 03:53:33;;;;;;;13.75;4.30;;;;;;;9.11;55.04;101307.56;1705666;84;21181;-78
2022/05/07 03:56:39;;;;;;;11.08;4.35;;;;;;;9.05;55.68;101310.88;1705620;84;21170;-78
2022/05/07 03:59:47;;;;;;;7.67;3.45;;;;;;;9.07;55.99;101312.95;1705669;84;21169;-78
2022/05/07 04:02:55;;;;;;;14.18;4.25;;;;;;;9.08;55.19;101315.55;1709487;83;21209;-78
2022/05/07 04:06:03;;;;;;;6.12;3.33;;;;;;;9.05;55.20;101313.09;1713740;83;21201;-78
2022/05/07 04:09:09;;;;;;;9.43;3.67;;;;;;;9.09;55.17;101313.69;1720125;83;21110;-78
2022/05/07 04:12:17;;;;;;;8.83;4.15;;;;;;;9.12;54.21;101316.11;1720141;83;21200;-78
2022/05/07 04:15:26;;;;;;;8.35;3.65;;;;;;;9.15;54.63;101311.73;1713222;82;21196;-78
2022/05/07 04:18:32;;;;;;;9.25;3.50;;;;;;;9.26;53.71;101306.12;1706888;82;21208;-78
2022/05/07 04:21:40;;;;;;;11.03;3.80;;;;;;;9.41;52.30;101310.17;1709734;82;21789;-78
2022/05/07 04:24:48;;;;;;;10.65;3.00;;;;;;;9.54;50.79;101315.82;1681349;85;21201;-78
2022/05/07 04:27:56;;;;;;;11.00;3.47;;;;;;;9.67;50.49;101310.92;1675434;85;21224;-78
2022/05/07 04:31:03;;;;;;;11.05;3.02;;;;;;;9.80;48.57;101311.48;1666730;84;21197;-78
2022/05/07 04:34:11;;;;;;;10.38;3.45;;;;;;;9.95;47.80;101318.20;1678445;85;21659;-78
2022/05/07 04:37:16;;;;;;;7.58;2.45;;;;;;;10.11;48.03;101307.99;1683907;84;21185;-78
2022/05/07 04:40:22;;;;;;;11.25;2.98;;;;;;;10.31;46.93;101312.95;1675508;85;21134;-79
2022/05/07 04:43:29;;;;;;;11.90;3.20;;;;;;;10.49;45.63;101314.34;1671910;85;21820;-78
2022/05/07 04:46:39;;;;;;;10.53;2.50;;;;;;;10.63;45.17;101319.82;1666946;85;21185;-78
2022/05/07 04:49:45;;;;;;;18.17;3.37;;;;;;;10.79;44.40;101315.08;1671523;85;21175;-78
2022/05/07 04:52:53;;;;;;;12.78;2.67;;;;;;;10.93;42.97;101324.13;1715067;83;21459;-78
2022/05/07 04:55:58;;;;;;;9.50;3.75;;;;;;;11.02;41.71;101320.98;1747297;81;21192;-78
2022/05/07 04:59:05;;;;;;;7.97;2.67;;;;;;;11.07;42.05;101317.27;1749409;82;21157;-78
2022/05/07 05:02:13;;;;;;;12.95;3.25;;;;;;;11.13;40.76;101313.90;1739319;81;21194;-82
2022/05/07 05:05:21;;;;;;;15.35;3.47;;;;;;;11.21;41.57;101312.11;1726611;81;21242;-78
2022/05/07 05:08:30;;;;;;;14.83;3.20;;;;;;;11.32;40.61;101312.88;1722256;83;21205;-82
2022/05/07 05:11:37;;;;;;;16.32;3.10;;;;;;;11.43;40.65;101317.63;1723524;82;21389;-78
2022/05/07 05:18:17;;;;;;;17.02;3.52;;;;;;;11.59;40.21;101311.94;1685697;85;21206;-83
2022/05/07 05:21:23;;;;;;;16.10;3.85;;;;;;;11.69;40.20;101315.44;1740419;81;21181;-83
2022/05/07 05:24:31;;;;;;;10.72;2.80;;;;;;;11.82;37.78;101316.40;1739457;81;21573;-82
2022/05/07 05:27:36;;;;;;;7.90;2.58;;;;;;;11.82;37.66;101316.40;1723835;83;21256;-83
2022/05/07 05:30:46;;;;;;;10.50;3.10;;;;;;;11.78;37.60;101317.22;1719814;83;21165;-83
2022/05/07 05:33:51;;;;;;;9.33;2.70;;;;;;;11.89;38.37;101321.61;1748263;80;21172;-83
2022/05/07 05:36:58;;;;;;;12.20;2.80;;;;;;;12.02;37.08;101324.28;1743379;80;21176;-83
2022/05/07 05:40:06;;;;;;;6.33;2.37;;;;;;;12.11;36.17;101310.63;1729603;81;21490;-83
2022/05/07 05:43:15;;;;;;;9.75;2.45;;;;;;;12.21;35.64;101312.22;1729956;83;21209;-83
2022/05/07 05:46:23;;;;;;;19.85;3.27;;;;;;;12.26;35.47;101313.11;1746690;81;21730;-83
2022/05/07 05:49:28;;;;;;;10.05;2.72;;;;;;;12.28;36.37;101300.11;1743727;80;21213;-83
2022/05/07 05:52:33;;;;;;;11.73;2.60;;;;;;;12.37;36.75;101300.47;1736225;81;21204;-83
2022/05/07 05:55:39;;;;;;;10.25;2.00;;;;;;;12.48;34.43;101300.71;1719556;83;21214;-83
2022/05/07 05:58:47;;;;;;;9.68;1.62;;;;;;;12.44;33.93;101307.55;1677817;85;21504;-83
2022/05/07 06:01:55;;;;;;;4.62;2.02;;;;;;;12.45;33.85;101304.63;1714342;83;21748;-83
2022/05/07 06:05:04;;;;;;;11.00;1.80;;;;;;;12.47;33.03;101296.25;1673511;85;21664;-84
2022/05/07 06:08:14;;;;;;;6.28;2.22;;;;;;;12.54;33.09;101294.03;1671631;84;21209;-83
2022/05/07 06:11:20;;;;;;;3.72;1.62;;;;;;;12.65;34.37;101298.36;1661619;85;21615;-83
2022/05/07 06:14:28;;;;;;;8.98;3.40;;;;;;;12.77;34.91;101293.44;1686165;85;21228;-83
2022/05/07 06:17:34;;;;;;;11.05;2.02;;;;;;;12.83;32.73;101295.51;1654043;85;21228;-83
2022/05/07 06:20:40;;;;;;;8.63;2.02;;;;;;;12.78;32.79;101289.14;1687698;85;21221;-82
2022/05/07 06:23:47;;;;;;;7.15;2.20;;;;;;;12.78;32.36;101291.89;1684656;84;21781;-82
2022/05/07 06:30:16;;;;;;;10.00;1.60;;;;;;;12.83;32.50;101283.67;1685454;84;21294;-82
2022/05/07 06:33:15;;;;;;;8.83;1.67;;;;;;;12.81;33.20;101283.84;1661154;85;21160;-82
2022/05/07 06:36:23;;;;;;;3.75;1.75;;;;;;;12.88;32.47;101289.00;1653086;86;21209;-83
2022/05/07 06:39:29;;;;;;;6.45;2.10;;;;;;;12.92;31.76;101282.15;1652803;86;21181;-82
2022/05/07 06:42:30;;;;;;;4.47;1.52;;;;;;;12.91;33.10;101285.93;1650775;84;21224;-83
2022/05/07 06:45:38;;;;;;;5.28;1.52;;;;;;;12.93;32.82;101281.63;1687293;84;21790;-82
2022/05/07 06:48:45;;;;;;;5.70;1.65;;;;;;;12.95;32.67;101287.31;1719799;83;21196;-82
2022/05/07 06:51:53;;;;;;;8.20;2.50;;;;;;;12.98;32.27;101289.70;1680927;85;21216;-83
2022/05/07 06:55:00;;;;;;;11.22;2.20;;;;;;;13.08;33.73;101287.32;1746131;81;21184;-83
2022/05/07 06:58:07;;;;;;;8.38;1.70;;;;;;;13.23;31.78;101274.17;1747044;81;21790;-83
2022/05/07 07:01:14;;;;;;;7.30;1.62;;;;;;;13.34;32.11;101281.22;1744752;81;21204;-83
2022/05/07 07:04:20;;;;;;;11.22;2.00;;;;;;;13.38;30.99;101278.99;1740235;81;21237;-83
2022/05/07 07:07:25;;;;;;;6.08;2.02;;;;;;;13.29;33.64;101272.11;1685548;85;21220;-83
2022/05/07 07:10:36;;;;;;;2.77;1.52;;;;;;;13.32;32.89;101264.05;1712047;82;21255;-83
2022/05/07 07:13:45;;;;;;;10.80;1.47;;;;;;;13.38;31.71;101268.86;1726208;82;21194;-83
2022/05/07 07:17:08;;;;;;;7.28;1.70;;;;;;;13.41;31.77;101276.77;1718691;82;21219;-83
2022/05/07 07:20:15;;;;;;;5.35;1.60;;;;;;;13.53;31.77;101271.25;1711045;83;21715;-83
2022/05/07 07:23:21;;;;;;;4.55;1.55;;;;;;;13.59;31.11;101277.09;1724840;82;21225;-84
2022/05/07 07:26:26;;;;;;;4.35;1.65;;;;;;;13.58;31.83;101274.00;1672581;84;21193;-83
2022/05/07 07:29:31;;;;;;;3.50;1.10;;;;;;;13.60;32.03;101262.30;1722942;83;21705;-83
2022/05/07 07:32:37;;;;;;;4.25;1.30;;;;;;;13.72;31.75;101263.68;1699296;82;21260;-83
2022/05/07 07:35:43;;;;;;;12.68;1.65;;;;;;;13.81;32.04;101262.64;1719695;83;21253;-83
2022/05/07 07:38:51;;;;;;;5.00;2.30;;;;;;;13.85;32.31;101258.52;1722585;82;21241;-84
2022/05/07 07:41:58;;;;;;;13.08;1.80;;;;;;;13.88;32.63;101245.80;1718137;82;21225;-83
2022/05/07 07:48:29;;;;;;;9.83;2.02;;;;;;;14.00;30.10;101240.25;1717202;83;21714;-83
2022/05/07 07:51:36;;;;;;;6.80;1.72;;;;;;;13.98;30.88;101240.95;1702310;82;21517;-83
2022/05/07 07:54:41;;;;;;;12.25;2.22;;;;;;;14.02;32.97;101240.06;1705546;83;21268;-83
2022/05/07 07:57:47;;;;;;;4.75;2.20;;;;;;;14.15;32.08;101232.64;1724642;82;21208;-84
2022/05/07 08:00:54;;;;;;;14.53;2.22;;;;;;;14.25;31.47;101234.66;1724160;80;21344;-83
2022/05/07 08:04:04;;;;;;;10.88;2.30;;;;;;;14.31;30.97;101232.07;1733779;82;21704;-84
2022/05/07 08:13:56;;;;;;;3.77;1.60;;;;;;;14.37;32.45;101216.73;1741453;81;21213;-84
2022/05/07 08:17:03;;;;;;;7.92;1.45;;;;;;;14.42;31.70;101227.20;1747505;80;21747;-79
2022/05/07 08:20:13;;;;;;;4.85;1.80;;;;;;;14.47;32.43;101224.24;1740351;80;21256;-83
2022/05/07 08:23:11;;;;;;;9.95;1.37;;;;;;;14.54;30.64;101215.66;1719704;82;21177;-78
2022/05/07 08:26:16;;;;;;;8.33;1.57;;;;;;;14.61;30.87;101221.80;1742671;82;21192;-78
2022/05/07 08:29:23;;;;;;;5.33;1.60;;;;;;;14.64;30.43;101219.55;1743107;82;21766;-79
2022/05/07 08:32:29;;;;;;;6.12;1.60;;;;;;;14.73;31.00;101219.84;1718734;83;21739;-79
2022/05/07 08:35:34;;;;;;;6.10;2.35;;;;;;;14.82;31.35;101227.55;1712064;83;21154;-79
2022/05/07 08:38:42;;;;;;;6.08;1.42;;;;;;;14.79;29.11;101223.24;1708282;83;21177;-79
2022/05/07 08:41:49;;;;;;;6.85;1.80;;;;;;;14.75;28.49;101216.37;1732731;81;21159;-79
2022/05/07 08:44:55;;;;;;;6.12;1.35;;;;;;;14.76;29.14;101225.49;1730428;81;21233;-79
2022/05/07 08:48:01;;;;;;;3.60;1.82;;;;;;;14.71;29.60;101207.28;1738283;81;21220;-79
2022/05/07 08:51:07;;;;;;;6.75;1.62;;;;;;;14.73;30.58;101198.34;1745207;81;21256;-79
2022/05/07 08:54:12;;;;;;;6.12;1.37;;;;;;;14.78;28.50;101202.78;1745200;81;21204;-79
2022/05/07 08:57:17;;;;;;;5.30;1.30;;;;;;;14.85;28.77;101197.39;1737597;81;21791;-78
2022/05/07 09:00:27;;;;;;;9.53;1.22;;;;;;;14.94;28.38;101188.88;1738658;81;21228;-80
2022/05/07 09:03:34;;;;;;;;;;;;;;;15.04;29.91;101193.62;1747003;81;21244;-79
2022/05/07 09:06:41;;;;;;;6.03;1.65;;;;;;;15.06;29.49;101190.70;1721162;82;20193;-79
2022/05/07 09:09:57;;;;;;;5.40;1.25;;;;;;;15.06;29.08;101191.55;1733854;81;21793;-79
2022/05/07 09:13:25;;;;;;;10.68;1.50;;;;;;;15.12;27.70;101179.45;1744019;81;21220;-79
2022/05/07 09:16:33;;;;;;;6.30;1.53;;;;;;;15.14;28.40;101178.73;1744055;81;21786;-79
2022/05/07 09:19:38;;;;;;;7.80;1.50;;;;;;;15.19;28.91;101179.88;1738557;81;21137;-79
2022/05/07 09:22:44;;;;;;;8.45;1.40;;;;;;;15.15;29.21;101192.84;1741003;80;21794;-79
2022/05/07 09:25:53;;;;;;;11.22;1.98;;;;;;;15.12;27.46;101180.83;1748670;81;21205;-79
2022/05/07 09:28:57;;;;;;;6.70;1.50;;;;;;;15.13;28.26;101172.37;1744105;81;21239;-79
2022/05/07 09:32:04;;;;;;;4.45;1.62;;;;;;;15.14;26.87;101159.45;1747989;81;21209;-79
2022/05/07 09:38:32;;;;;;;7.33;1.85;;;;;;;15.21;28.58;101153.02;1745767;81;21822;-79
2022/05/07 09:41:37;;;;;;;5.95;1.40;;;;;;;15.28;29.47;101153.11;1738152;81;21211;-79
2022/05/07 09:44:43;;;;;;;2.87;1.20;;;;;;;15.28;27.52;101147.60;1670949;84;22204;-79
2022/05/07 09:47:48;;;;;;;7.70;1.20;;;;;;;15.30;28.45;101152.42;1714219;82;21201;-79
2022/05/07 09:50:53;;;;;;;6.95;1.50;;;;;;;15.37;27.46;101161.64;1714452;83;21174;-79
2022/05/07 09:57:32;;;;;;;5.72;1.70;;;;;;;15.44;27.05;101142.47;1686135;83;21233;-79
2022/05/07 10:00:37;;;;;;;10.30;1.35;;;;;;;15.48;28.99;101145.16;1684090;83;21339;-79
2022/05/07 10:04:10;;;;;;;4.85;1.70;;;;;;;15.50;28.28;101140.33;1679789;85;21177;-79
2022/05/07 10:07:43;;;;;;;3.37;1.67;;;;;;;15.53;27.65;101147.70;1723601;81;21220;-79
2022/05/07 10:10:48;;;;;;;4.50;1.40;;;;;;;15.54;27.66;101131.49;1729692;82;21233;-79
2022/05/07 10:14:04;;;;;;;2.85;1.50;;;;;;;15.57;28.69;101138.52;1723054;82;21177;-79
2022/05/07 10:17:18;;;;;;;3.35;1.65;;;;;;;15.62;29.52;101136.08;1721994;82;21189;-79
2022/05/07 10:20:28;;;;;;;3.52;1.90;;;;;;;15.69;28.63;101120.50;1732887;82;21207;-79
2022/05/07 10:23:38;;;;;;;8.50;2.12;;;;;;;15.74;28.06;101118.55;1706849;84;22083;-79
2022/05/07 10:26:49;;;;;;;10.05;1.98;;;;;;;15.78;29.77;101124.02;1729068;82;21465;-79
2022/05/07 10:29:57;;;;;;;4.08;1.70;;;;;;;15.84;28.63;101102.56;1730917;82;21185;-79
2022/05/07 10:33:04;;;;;;;6.80;2.12;;;;;;;15.93;29.65;101107.45;1718334;82;21865;-79
2022/05/07 10:36:00;;;;;;;3.50;1.65;;;;;;;15.98;29.68;101099.45;1732879;82;21532;-79
2022/05/07 10:39:04;;;;;;;4.60;1.90;;;;;;;16.02;29.34;101114.05;1732641;82;21214;-79
2022/05/07 10:42:11;;;;;;;4.17;1.40;;;;;;;16.05;28.25;101096.27;1703480;82;21200;-78
2022/05/07 10:45:29;;;;;;;9.80;1.90;;;;;;;16.03;28.29;101092.30;1694759;84;21185;-79
2022/05/07 10:48:34;;;;;;;13.78;2.22;;;;;;;16.04;28.11;101091.77;1707247;82;21222;-79
2022/05/07 10:51:59;;;;;;;3.95;1.32;;;;;;;16.05;28.84;101101.27;1707134;84;21171;-79
2022/05/07 10:54:51;;;;;;;7.65;1.70;;;;;;;16.04;28.00;101088.52;1728205;82;21244;-79
2022/05/07 10:57:58;;;;;;;3.75;1.60;;;;;;;16.06;28.26;101086.94;1727151;82;21799;-78
2022/05/07 11:01:05;;;;;;;5.90;1.95;;;;;;;16.07;29.48;101097.77;1670724;85;21591;-79
2022/05/07 11:04:22;;;;;;;8.70;1.70;;;;;;;16.16;29.12;101088.00;1710387;82;21179;-79
2022/05/07 11:07:28;;;;;;;8.10;1.95;;;;;;;16.24;28.47;101082.38;1722748;82;21225;-78
2022/05/07 11:10:37;;;;;;;2.10;1.37;;;;;;;16.29;28.31;101083.50;1720493;82;21214;-79
2022/05/07 11:13:56;;;;;;;4.08;1.67;;;;;;;16.33;27.30;101066.88;1724697;82;21180;-78
2022/05/07 11:17:04;;;;;;;3.37;2.02;;;;;;;16.39;27.83;101067.99;1727652;82;21201;-79
2022/05/07 11:20:10;;;;;;;2.95;1.45;;;;;;;16.38;28.19;101066.30;1723127;82;21185;-79
2022/05/07 11:23:21;;;;;;;4.28;1.55;;;;;;;16.42;28.83;101057.06;1732525;82;21182;-79
2022/05/07 11:26:28;;;;;;;5.90;2.33;;;;;;;16.49;29.11;101049.19;1730966;82;22151;-79
2022/05/07 11:29:35;;;;;;;4.60;1.40;;;;;;;16.52;26.54;101059.86;1725460;82;21268;-82
2022/05/07 11:32:46;;;;;;;8.30;1.87;;;;;;;16.52;26.93;101039.14;1719859;82;21174;-83
2022/05/07 11:35:51;;;;;;;6.22;1.80;;;;;;;16.56;26.44;101039.58;1710377;82;21182;-84
2022/05/07 11:39:03;;;;;;;2.80;1.50;;;;;;;16.56;26.93;101032.17;1703062;84;21801;-84
2022/05/07 11:42:08;;;;;;;5.15;1.95;;;;;;;16.58;28.33;101040.25;1703449;84;21260;-83
2022/05/07 11:45:26;;;;;;;5.45;1.30;;;;;;;16.63;26.15;101037.75;1701117;84;21205;-82
2022/05/07 11:48:31;;;;;;;5.35;1.45;;;;;;;16.63;26.78;101034.13;1712958;83;21263;-83
2022/05/07 11:51:36;;;;;;;3.00;1.72;;;;;;;16.65;27.69;101024.58;1715119;82;21591;-84
2022/05/07 11:54:41;;;;;;;12.75;2.00;;;;;;;16.69;26.92;101022.28;1656482;86;21266;-83
2022/05/07 11:57:48;;;;;;;3.80;1.80;;;;;;;16.69;27.61;101020.37;1720052;82;21288;-83
2022/05/07 12:00:56;;;;;;;3.12;1.70;;;;;;;16.72;29.15;101010.88;1725696;81;21232;-79
2022/05/07 12:04:03;;;;;;;4.47;1.70;;;;;;;16.80;29.00;101014.36;1728958;81;21212;-79
2022/05/07 12:07:10;;;;;;;11.10;2.00;;;;;;;16.85;29.38;101010.46;1748004;82;21216;-79
2022/05/07 12:10:17;;;;;;;5.20;1.77;;;;;;;16.92;26.87;101003.59;1734903;81;21291;-79
2022/05/07 12:13:24;;;;;;;6.22;2.10;;;;;;;16.95;26.59;101003.20;1692829;82;21225;-79
2022/05/07 12:19:53;;;;;;;6.72;1.80;;;;;;;16.91;27.38;100992.22;1653489;86;21205;-79
2022/05/07 12:29:52;;;;;;;6.97;2.30;;;;;;;16.92;26.95;100998.06;1713604;83;21229;-79
2022/05/07 12:32:57;;;;;;;6.10;2.47;;;;;;;16.99;24.40;100985.70;1728111;82;21830;-79
2022/05/07 12:36:03;;;;;;;6.78;2.33;;;;;;;16.99;24.88;100981.02;1742783;82;21209;-79
2022/05/07 12:39:08;;;;;;;7.47;2.20;;;;;;;17.02;25.35;100983.89;1743107;82;21209;-79
2022/05/07 12:42:17;;;;;;;4.90;2.12;;;;;;;17.05;25.30;100987.11;1743216;81;21253;-79
2022/05/07 12:45:22;;;;;;;9.15;2.42;;;;;;;17.05;24.42;100980.20;1743185;82;21666;-79
2022/05/07 12:48:28;;;;;;;8.08;1.98;;;;;;;17.05;24.05;100987.11;1741983;81;21232;-79
2022/05/07 12:51:36;;;;;;;4.35;2.02;;;;;;;17.03;24.21;100980.95;1741869;82;21169;-79
2022/05/07 12:54:41;;;;;;;19.40;2.60;;;;;;;17.01;24.65;100983.04;1741587;82;21181;-79
2022/05/07 12:57:45;;;;;;;8.55;2.33;;;;;;;17.00;24.53;100979.11;1741697;82;21208;-79
2022/05/07 13:00:50;;;;;;;8.60;2.27;;;;;;;17.02;26.17;100982.51;1740473;82;21646;-79
2022/05/07 13:03:56;;;;;;;8.93;2.37;;;;;;;17.06;24.92;100981.90;1716414;82;21254;-79
2022/05/07 13:07:02;;;;;;;4.80;2.00;;;;;;;17.13;24.76;100986.64;1713557;83;21227;-79
2022/05/07 13:10:07;;;;;;;5.35;2.37;;;;;;;17.11;23.62;100979.37;1713185;83;21234;-79
2022/05/07 13:13:12;;;;;;;8.03;2.00;;;;;;;17.08;24.69;100967.91;1723199;82;21196;-79
2022/05/07 13:16:18;;;;;;;5.92;1.85;;;;;;;17.06;25.73;100973.61;1713491;83;21217;-79
2022/05/07 13:19:24;;;;;;;7.47;2.22;;;;;;;17.08;26.68;100970.13;1714037;83;21169;-79
2022/05/07 13:22:29;;;;;;;9.08;2.47;;;;;;;17.15;24.63;100970.69;1714032;83;21200;-79
2022/05/07 13:25:35;;;;;;;8.35;2.33;;;;;;;17.13;24.30;100963.14;1713930;83;21169;-79
2022/05/07 13:28:34;;;;;;;3.58;1.90;;;;;;;17.07;24.49;100964.25;1713774;83;21222;-79
2022/05/07 13:31:26;;;;;;;5.25;2.08;;;;;;;17.06;25.46;100960.33;1713671;83;21240;-79
2022/05/07 13:34:32;;;;;;;5.22;1.80;;;;;;;17.05;25.03;100969.14;1743572;82;21173;-79
2022/05/07 13:37:37;;;;;;;6.15;2.22;;;;;;;17.06;24.83;100961.17;1743386;81;21900;-79
2022/05/07 13:40:44;;;;;;;3.15;1.80;;;;;;;17.06;25.25;100961.17;1743085;82;21221;-79
2022/05/07 13:43:50;;;;;;;4.85;2.25;;;;;;;17.09;25.16;100963.54;1741832;81;21209;-79
2022/05/07 13:46:55;;;;;;;7.22;1.98;;;;;;;17.09;24.85;100964.92;1740187;81;21333;-79
2022/05/07 13:50:04;;;;;;;6.90;2.50;;;;;;;17.08;25.07;100959.61;1713376;83;21238;-79
2022/05/07 13:53:10;;;;;;;10.08;2.35;;;;;;;17.08;25.82;100958.23;1712372;83;21218;-79
2022/05/07 13:56:17;;;;;;;7.67;2.22;;;;;;;17.10;25.10;100959.72;1712974;83;21303;-79
2022/05/07 13:59:25;;;;;;;3.22;2.37;;;;;;;17.13;26.32;100956.23;1713695;83;21182;-79
2022/05/07 14:02:36;;;;;;;13.15;2.42;;;;;;;17.15;25.58;100956.88;1720974;82;21221;-79
2022/05/07 14:05:41;;;;;;;5.95;2.42;;;;;;;17.15;26.98;100958.25;1740400;82;21201;-79
2022/05/07 14:08:49;;;;;;;5.92;2.65;;;;;;;17.12;25.81;100959.50;1740347;82;21224;-79
2022/05/07 14:11:54;;;;;;;7.00;2.60;;;;;;;17.06;26.33;100955.65;1741084;82;21572;-79
2022/05/07 14:15:01;;;;;;;5.30;2.58;;;;;;;17.02;27.51;100948.81;1741322;82;21719;-79
2022/05/07 14:18:07;;;;;;;9.43;4.05;;;;;;;16.99;26.93;100952.00;1740356;82;21244;-79
2022/05/07 14:21:16;;;;;;;12.07;4.12;;;;;;;16.98;24.72;100946.13;1741492;82;21457;-79
2022/05/07 14:24:23;;;;;;;11.68;4.17;;;;;;;16.99;25.28;100955.30;1741274;82;21177;-79
2022/05/07 14:27:28;;;;;;;5.37;3.42;;;;;;;16.98;25.55;100941.98;1740630;82;21201;-79
2022/05/07 14:30:36;;;;;;;5.22;3.55;;;;;;;16.98;24.89;100939.22;1741667;82;21723;-79
2022/05/07 14:33:41;;;;;;;6.72;3.60;;;;;;;16.98;25.26;100940.59;1747963;82;21204;-79
2022/05/07 14:36:50;;;;;;;5.83;3.50;;;;;;;16.94;25.12;100946.23;1751372;80;21208;-83
2022/05/07 14:39:55;;;;;;;12.50;3.70;;;;;;;16.93;24.60;100950.03;1718262;83;21830;-83
2022/05/07 14:43:01;;;;;;;9.80;3.70;;;;;;;16.91;25.60;100948.02;1718399;82;21212;-79
2022/05/07 14:46:07;;;;;;;9.93;3.92;;;;;;;16.90;25.88;100949.61;1718089;83;21201;-83
2022/05/07 14:49:11;;;;;;;10.28;3.83;;;;;;;16.89;25.03;100940.97;1718215;83;21173;-83
2022/05/07 14:52:16;;;;;;;6.20;3.72;;;;;;;16.85;25.16;100943.30;1718174;82;21201;-83
2022/05/07 14:55:23;;;;;;;7.72;4.08;;;;;;;16.83;26.19;100938.48;1718532;83;21766;-83
2022/05/07 14:58:28;;;;;;;6.45;4.35;;;;;;;16.81;27.18;100938.70;1717162;82;21208;-83
2022/05/07 15:01:36;;;;;;;11.97;4.25;;;;;;;16.76;25.93;100937.61;1721087;82;21538;-83
2022/05/07 15:04:42;;;;;;;6.80;4.35;;;;;;;16.73;26.64;100944.38;1736698;82;21185;-83
2022/05/07 15:07:48;;;;;;;9.45;4.72;;;;;;;16.70;25.61;100941.12;1735497;82;21237;-83
2022/05/07 15:10:54;;;;;;;9.28;4.62;;;;;;;16.67;26.18;100941.54;1736488;82;21228;-83
2022/05/07 15:13:52;;;;;;;11.57;4.30;;;;;;;16.65;27.12;100943.10;1734835;82;21770;-83
2022/05/07 15:16:45;;;;;;;16.80;5.00;;;;;;;16.61;27.01;100934.39;1735860;82;21193;-83